Time;durP1;ratioP1;P1;durP2;ratioP2;P2;SDS_P1;SDS_P2;PMS_P1;PMS_P2;Temp;Humidity;BMP_temperature;BMP_pressure;BME280_temperature;BME280_humidity;BME280_pressure;Samples;Min_cycle;Max_cycle;Signal;HPM_P1;HPM_P2
2023/04/21 00:00:06;;;;;;;25.50;9.75;;;7.90;99.90;;;;;;4901890;29;20138;-85
2023/04/21 00:02:32;;;;;;;18.42;8.68;;;8.00;99.90;;;;;;4899250;29;20029;-84
2023/04/21 00:04:59;;;;;;;18.38;7.65;;;8.00;99.90;;;;;;4896260;29;20062;-85
2023/04/21 00:07:24;;;;;;;20.73;8.60;;;8.00;99.90;;;;;;4879806;29;20039;-86
2023/04/21 00:09:50;;;;;;;22.60;8.25;;;8.00;99.90;;;;;;4883262;29;20032;-86
2023/04/21 00:12:16;;;;;;;21.85;9.13;;;8.10;99.90;;;;;;4900173;29;20024;-85
2023/04/21 00:14:41;;;;;;;25.10;10.52;;;8.10;99.90;;;;;;4883191;29;20049;-85
2023/04/21 00:17:07;;;;;;;20.10;10.10;;;8.20;99.90;;;;;;4883336;29;20025;-84
2023/04/21 00:19:34;;;;;;;18.70;9.60;;;8.20;99.90;;;;;;4882846;29;20028;-85
2023/04/21 00:22:00;;;;;;;19.25;7.85;;;8.20;99.90;;;;;;4883082;29;20115;-85
2023/04/21 00:24:29;;;;;;;22.70;9.52;;;8.20;99.90;;;;;;4883566;29;20029;-85
2023/04/21 00:26:54;;;;;;;25.50;9.35;;;8.20;99.90;;;;;;4883284;29;20029;-84
2023/04/21 00:29:20;;;;;;;28.52;10.23;;;8.20;99.90;;;;;;4883409;29;20501;-84
2023/04/21 00:31:45;;;;;;;20.38;10.15;;;8.10;99.90;;;;;;4883478;29;20044;-86
2023/04/21 00:34:11;;;;;;;32.53;10.32;;;8.10;99.90;;;;;;4900039;29;20047;-86
2023/04/21 00:36:37;;;;;;;25.33;10.43;;;8.00;99.90;;;;;;4867029;29;20025;-86
2023/04/21 00:39:04;;;;;;;18.90;9.10;;;8.00;99.90;;;;;;4900172;29;20112;-86
2023/04/21 00:41:33;;;;;;;24.15;10.75;;;8.00;99.90;;;;;;4900809;29;20088;-87
2023/04/21 00:44:11;;;;;;;27.95;11.23;;;8.00;99.90;;;;;;4900606;29;20068;-86
2023/04/21 00:46:37;;;;;;;27.13;10.30;;;8.00;99.90;;;;;;4900451;29;20025;-86
2023/04/21 00:49:04;;;;;;;34.55;12.32;;;7.90;99.90;;;;;;4899856;29;20029;-86
2023/04/21 00:51:32;;;;;;;24.15;10.77;;;7.90;99.90;;;;;;4882400;29;20025;-86
2023/04/21 00:53:59;;;;;;;22.35;11.13;;;7.80;99.90;;;;;;4882663;29;20060;-86
2023/04/21 00:56:27;;;;;;;26.10;10.73;;;7.80;99.90;;;;;;4899479;29;20024;-86
2023/04/21 00:58:53;;;;;;;31.45;11.20;;;7.80;99.90;;;;;;4882471;29;20037;-86
2023/04/21 01:01:18;;;;;;;31.42;10.82;;;7.80;99.90;;;;;;4899700;29;20028;-86
2023/04/21 01:03:46;;;;;;;30.20;11.98;;;7.80;99.90;;;;;;4900084;29;20522;-87
2023/04/21 01:06:12;;;;;;;26.13;11.60;;;7.80;99.90;;;;;;4883969;29;20058;-87
2023/04/21 01:08:37;;;;;;;30.60;11.50;;;7.80;99.90;;;;;;4882736;29;20595;-87
2023/04/21 01:11:10;;;;;;;21.63;10.30;;;7.80;99.90;;;;;;4883470;29;20035;-88
2023/04/21 01:13:37;;;;;;;30.20;11.02;;;7.90;99.90;;;;;;4884319;29;20049;-88
2023/04/21 01:16:02;;;;;;;19.77;9.65;;;7.90;99.90;;;;;;4883429;29;20031;-88
2023/04/21 01:18:29;;;;;;;20.77;10.73;;;7.90;99.90;;;;;;4882912;29;20506;-88
2023/04/21 01:20:55;;;;;;;18.67;10.60;;;7.80;99.90;;;;;;4883162;29;20087;-88
2023/04/21 01:23:21;;;;;;;23.13;9.82;;;7.80;99.90;;;;;;4900488;29;20116;-90
2023/04/21 01:25:46;;;;;;;23.75;9.38;;;7.80;99.90;;;;;;4899902;29;20474;-91
2023/04/21 01:28:12;;;;;;;17.90;8.98;;;7.80;99.90;;;;;;4899938;29;20529;-88
2023/04/21 01:30:38;;;;;;;21.77;10.15;;;7.80;99.90;;;;;;4884099;29;20474;-88
2023/04/21 01:33:04;;;;;;;16.98;7.65;;;7.80;99.90;;;;;;4885955;29;20446;-87
2023/04/21 01:35:29;;;;;;;15.23;8.32;;;7.70;99.90;;;;;;4883285;29;20190;-88
2023/04/21 01:37:55;;;;;;;19.52;8.07;;;7.70;99.90;;;;;;4899907;29;20029;-89
2023/04/21 01:40:21;;;;;;;14.75;6.97;;;7.70;99.90;;;;;;4899854;29;20037;-90
2023/04/21 01:42:46;;;;;;;15.27;7.72;;;7.60;99.90;;;;;;4883626;29;20025;-86
2023/04/21 01:45:12;;;;;;;11.93;6.93;;;7.60;99.90;;;;;;4883039;29;20071;-88
2023/04/21 01:47:38;;;;;;;20.63;7.57;;;7.70;99.90;;;;;;4899360;29;20044;-88
2023/04/21 01:50:04;;;;;;;15.27;7.57;;;7.70;99.90;;;;;;4883175;29;20028;-88
2023/04/21 01:52:30;;;;;;;18.02;8.00;;;7.70;99.90;;;;;;4899593;29;20459;-88
2023/04/21 01:54:59;;;;;;;21.35;8.82;;;7.70;99.90;;;;;;4882335;29;20033;-88
2023/04/21 01:57:25;;;;;;;18.25;8.27;;;7.70;99.90;;;;;;4899611;29;20028;-87
2023/04/21 01:59:51;;;;;;;18.38;9.27;;;7.70;99.90;;;;;;4900117;29;20513;-88
2023/04/21 02:02:16;;;;;;;19.88;9.40;;;7.70;99.90;;;;;;4899191;29;20024;-87
2023/04/21 02:04:42;;;;;;;26.75;9.90;;;7.70;99.90;;;;;;4898401;29;20063;-88
2023/04/21 02:07:09;;;;;;;18.30;9.88;;;7.70;99.90;;;;;;4898799;29;20020;-88
2023/04/21 02:09:35;;;;;;;18.80;9.38;;;7.70;99.90;;;;;;4882449;29;20047;-87
2023/04/21 02:12:01;;;;;;;21.13;10.30;;;7.60;99.90;;;;;;4882729;29;20025;-87
2023/04/21 02:14:27;;;;;;;23.95;10.13;;;7.60;99.90;;;;;;4882059;29;20070;-87
2023/04/21 02:16:52;;;;;;;23.70;10.30;;;7.60;99.90;;;;;;4899078;29;20036;-87
2023/04/21 02:19:18;;;;;;;23.42;10.23;;;7.60;99.90;;;;;;4882134;29;20443;-88
2023/04/21 02:21:44;;;;;;;18.67;9.75;;;7.60;99.90;;;;;;4898463;29;20035;-87
2023/04/21 02:24:10;;;;;;;19.27;10.00;;;7.60;99.90;;;;;;4882283;29;20053;-87
2023/04/21 02:26:36;;;;;;;26.25;11.00;;;7.60;99.90;;;;;;4898946;29;20092;-88
2023/04/21 02:29:02;;;;;;;22.40;10.48;;;7.60;99.90;;;;;;4882605;29;20029;-87
2023/04/21 02:31:28;;;;;;;24.40;10.57;;;7.60;99.90;;;;;;4897837;29;20029;-87
2023/04/21 02:33:54;;;;;;;24.77;10.35;;;7.60;99.90;;;;;;4881656;29;20501;-87
2023/04/21 02:36:20;;;;;;;21.98;9.95;;;7.60;99.90;;;;;;4898367;29;20032;-86
2023/04/21 02:38:46;;;;;;;39.17;13.07;;;7.60;99.90;;;;;;4881841;29;20028;-87
2023/04/21 02:41:11;;;;;;;30.25;12.32;;;7.60;99.90;;;;;;4882335;29;20043;-86
2023/04/21 02:43:40;;;;;;;36.05;12.57;;;7.60;99.90;;;;;;4882185;29;20041;-86
2023/04/21 02:46:06;;;;;;;27.02;13.68;;;7.60;99.90;;;;;;4882616;29;20487;-86
2023/04/21 02:48:32;;;;;;;33.35;13.75;;;7.50;99.90;;;;;;4899098;29;20032;-86
2023/04/21 02:50:58;;;;;;;35.70;13.82;;;7.60;99.90;;;;;;4881405;29;20036;-87
2023/04/21 02:53:24;;;;;;;31.80;12.85;;;7.50;99.90;;;;;;4881822;29;20184;-87
2023/04/21 02:55:49;;;;;;;45.25;15.55;;;7.50;99.90;;;;;;4881575;29;20036;-87
2023/04/21 02:58:15;;;;;;;25.80;11.90;;;7.50;99.90;;;;;;4898209;29;20025;-88
2023/04/21 03:00:41;;;;;;;32.28;12.90;;;7.50;99.90;;;;;;4898647;29;20029;-87
2023/04/21 03:03:07;;;;;;;34.90;13.70;;;7.50;99.90;;;;;;4881802;29;20024;-87
2023/04/21 03:05:32;;;;;;;34.67;13.20;;;7.50;99.90;;;;;;4881479;29;20410;-87
2023/04/21 03:07:58;;;;;;;32.30;11.60;;;7.50;99.90;;;;;;4881618;29;20028;-87
2023/04/21 03:10:24;;;;;;;35.70;14.05;;;7.50;99.90;;;;;;4881998;29;20547;-87
2023/04/21 03:12:49;;;;;;;40.05;12.70;;;7.50;99.90;;;;;;4881634;29;20029;-87
2023/04/21 03:15:15;;;;;;;29.48;11.77;;;7.50;99.90;;;;;;4898042;29;20443;-83
2023/04/21 03:17:41;;;;;;;28.48;11.52;;;7.50;99.90;;;;;;4897738;29;20092;-86
2023/04/21 03:20:08;;;;;;;24.60;10.25;;;7.50;99.90;;;;;;4897363;29;20040;-86
2023/04/21 03:22:37;;;;;;;43.95;12.52;;;7.50;99.90;;;;;;4880360;29;20087;-86
2023/04/21 03:25:05;;;;;;;31.15;11.38;;;7.50;99.90;;;;;;4898045;29;20060;-84
2023/04/21 03:27:32;;;;;;;30.35;12.32;;;7.50;99.90;;;;;;4887257;29;20021;-87
2023/04/21 03:29:58;;;;;;;25.33;11.13;;;7.50;99.90;;;;;;4887528;29;20024;-85
2023/04/21 03:32:23;;;;;;;35.75;12.50;;;7.40;99.90;;;;;;4885262;29;20033;-83
2023/04/21 03:34:49;;;;;;;37.35;11.82;;;7.50;99.90;;;;;;4902530;29;20503;-85
2023/04/21 03:37:15;;;;;;;26.77;11.55;;;7.50;99.90;;;;;;4897809;29;20029;-87
2023/04/21 03:39:40;;;;;;;28.17;10.85;;;7.50;99.90;;;;;;4880612;29;20403;-87
2023/04/21 03:42:06;;;;;;;28.55;10.95;;;7.50;99.90;;;;;;4882601;29;20426;-87
2023/04/21 03:44:32;;;;;;;34.28;13.13;;;7.50;99.90;;;;;;4884772;29;20036;-87
2023/04/21 03:46:58;;;;;;;31.98;13.23;;;7.50;99.90;;;;;;4884465;29;20513;-87
2023/04/21 03:49:23;;;;;;;34.10;12.50;;;7.40;99.90;;;;;;4902576;29;20065;-86
2023/04/21 03:51:49;;;;;;;32.80;12.88;;;7.50;99.90;;;;;;4886611;29;20056;-87
2023/04/21 03:54:15;;;;;;;33.70;13.15;;;7.40;99.90;;;;;;4904009;29;20040;-86
2023/04/21 03:56:40;;;;;;;32.60;13.40;;;7.40;99.90;;;;;;4885690;29;20052;-86
2023/04/21 03:59:06;;;;;;;35.75;13.63;;;7.40;99.90;;;;;;4902408;29;20108;-87
2023/04/21 04:01:35;;;;;;;34.95;12.35;;;7.40;99.90;;;;;;4884726;29;20024;-87
2023/04/21 04:04:01;;;;;;;29.92;12.68;;;7.40;99.90;;;;;;4884092;29;20627;-87
2023/04/21 04:06:30;;;;;;;38.13;13.35;;;7.40;99.90;;;;;;4900304;29;20056;-87
2023/04/21 04:08:56;;;;;;;37.97;13.80;;;7.40;99.90;;;;;;4901574;29;20032;-87
2023/04/21 04:11:22;;;;;;;39.10;15.05;;;7.40;99.90;;;;;;4884880;29;20033;-86
2023/04/21 04:13:47;;;;;;;34.63;12.45;;;7.40;99.90;;;;;;4901444;29;20041;-87
2023/04/21 04:16:13;;;;;;;35.75;13.13;;;7.40;99.90;;;;;;4869842;29;20399;-86
2023/04/21 04:18:39;;;;;;;40.55;14.02;;;7.40;99.90;;;;;;4883927;29;20456;-87
2023/04/21 04:21:06;;;;;;;40.55;13.55;;;7.50;99.90;;;;;;4883579;29;20025;-86
2023/04/21 04:23:32;;;;;;;28.20;13.40;;;7.40;99.90;;;;;;4884684;29;20059;-84
2023/04/21 04:25:58;;;;;;;41.33;14.13;;;7.40;99.90;;;;;;4900200;29;20096;-84
2023/04/21 04:28:24;;;;;;;30.98;11.88;;;7.40;99.90;;;;;;4900204;29;20120;-85
2023/04/21 04:30:49;;;;;;;31.65;11.90;;;7.40;99.90;;;;;;4900291;29;20077;-86
2023/04/21 04:33:18;;;;;;;36.60;14.20;;;7.40;99.90;;;;;;4883463;29;20032;-87
2023/04/21 04:35:44;;;;;;;40.45;14.43;;;7.40;99.90;;;;;;4899787;29;20028;-86
2023/04/21 04:38:10;;;;;;;46.10;13.80;;;7.50;99.90;;;;;;4883089;29;20073;-87
2023/04/21 04:40:35;;;;;;;38.97;15.95;;;7.50;99.90;;;;;;4900187;29;20037;-84
2023/04/21 04:43:02;;;;;;;45.97;14.02;;;7.50;99.90;;;;;;4883683;29;20387;-86
2023/04/21 04:45:30;;;;;;;38.10;13.40;;;7.50;99.90;;;;;;4883307;29;20059;-86
2023/04/21 04:47:56;;;;;;;32.25;12.75;;;7.40;99.90;;;;;;4899769;29;20059;-87
2023/04/21 04:50:23;;;;;;;35.60;12.45;;;7.50;99.90;;;;;;4883003;29;20060;-87
2023/04/21 04:52:48;;;;;;;43.25;13.27;;;7.50;99.90;;;;;;4899173;29;20025;-87
2023/04/21 04:55:14;;;;;;;43.65;13.98;;;7.50;99.90;;;;;;4900051;29;20622;-86
2023/04/21 04:57:40;;;;;;;40.00;13.18;;;7.50;99.90;;;;;;4883749;29;20036;-84
2023/04/21 05:00:10;;;;;;;31.08;11.48;;;7.50;99.90;;;;;;4883533;29;20032;-86
2023/04/21 05:02:36;;;;;;;41.03;12.77;;;7.50;99.90;;;;;;4899636;29;20039;-84
2023/04/21 05:05:03;;;;;;;39.28;15.65;;;7.50;99.90;;;;;;4883604;29;20052;-85
2023/04/21 05:07:32;;;;;;;33.60;13.02;;;7.50;99.90;;;;;;4887568;29;20036;-87
2023/04/21 05:09:58;;;;;;;28.85;14.13;;;7.40;99.90;;;;;;4900360;29;20424;-87
2023/04/21 05:12:23;;;;;;;33.30;13.82;;;7.50;99.90;;;;;;4900632;29;20048;-86
2023/04/21 05:14:49;;;;;;;36.47;13.10;;;7.50;99.90;;;;;;4900635;29;20119;-88
2023/04/21 05:17:15;;;;;;;37.47;12.75;;;7.50;99.90;;;;;;4883693;29;20024;-86
2023/04/21 05:19:40;;;;;;;42.42;14.00;;;7.60;99.90;;;;;;4900371;29;20534;-86
2023/04/21 05:22:06;;;;;;;36.42;13.52;;;7.50;99.90;;;;;;4883422;29;20032;-86
2023/04/21 05:24:33;;;;;;;38.50;12.98;;;7.60;99.90;;;;;;4883370;29;20037;-86
2023/04/21 05:26:58;;;;;;;33.00;13.23;;;7.60;99.90;;;;;;4900229;29;20041;-86
2023/04/21 05:29:24;;;;;;;34.28;12.90;;;7.60;99.90;;;;;;4900025;29;20032;-87
2023/04/21 05:31:50;;;;;;;32.38;11.65;;;7.60;99.90;;;;;;4883678;29;20033;-86
2023/04/21 05:34:15;;;;;;;40.92;13.13;;;7.70;99.90;;;;;;4883505;29;20476;-86
2023/04/21 05:36:42;;;;;;;38.63;12.18;;;7.70;99.90;;;;;;4883477;29;20039;-85
2023/04/21 05:39:07;;;;;;;40.13;12.25;;;7.70;99.90;;;;;;4883245;29;20016;-85
2023/04/21 05:41:33;;;;;;;35.65;13.25;;;7.70;99.90;;;;;;4883638;29;20120;-86
2023/04/21 05:43:59;;;;;;;37.63;13.52;;;7.70;99.90;;;;;;4899852;29;20032;-86
2023/04/21 05:46:24;;;;;;;28.77;12.32;;;7.70;99.90;;;;;;4899813;29;20029;-86
2023/04/21 05:48:50;;;;;;;38.83;12.60;;;7.70;99.90;;;;;;4883354;29;20036;-86
2023/04/21 05:51:16;;;;;;;37.10;12.57;;;7.70;99.90;;;;;;4899709;29;20087;-86
2023/04/21 05:53:43;;;;;;;47.58;12.50;;;7.80;99.90;;;;;;4899516;29;20056;-87
2023/04/21 05:56:09;;;;;;;34.50;12.85;;;7.80;99.90;;;;;;4882974;29;20032;-86
2023/04/21 05:58:35;;;;;;;43.65;13.45;;;7.80;99.90;;;;;;4882823;29;20080;-86
2023/04/21 06:01:01;;;;;;;41.33;13.00;;;7.80;99.90;;;;;;4899400;29;20033;-87
2023/04/21 06:03:30;;;;;;;30.08;11.27;;;7.80;99.90;;;;;;4882259;29;20045;-87
2023/04/21 06:05:57;;;;;;;32.45;11.13;;;7.80;99.90;;;;;;4882757;29;20091;-86
2023/04/21 06:08:23;;;;;;;30.75;12.38;;;7.90;99.90;;;;;;4900259;29;20055;-86
2023/04/21 06:10:48;;;;;;;42.60;11.68;;;7.90;99.90;;;;;;4883062;29;20025;-86
2023/04/21 06:13:14;;;;;;;36.03;12.65;;;7.90;99.90;;;;;;4890040;29;20069;-87
2023/04/21 06:15:40;;;;;;;37.22;13.13;;;7.90;99.90;;;;;;4887050;29;20096;-86
2023/04/21 06:18:05;;;;;;;37.95;13.68;;;7.90;99.90;;;;;;4885030;29;20360;-86
2023/04/21 06:20:31;;;;;;;34.17;12.75;;;7.80;99.90;;;;;;4884691;29;20178;-88
2023/04/21 06:22:57;;;;;;;35.63;11.52;;;7.90;99.90;;;;;;4881788;29;20032;-86
2023/04/21 06:25:22;;;;;;;32.00;13.25;;;7.90;99.90;;;;;;4907436;29;20051;-86
2023/04/21 06:27:49;;;;;;;34.60;13.18;;;7.90;99.90;;;;;;4891396;29;20033;-86
2023/04/21 06:30:16;;;;;;;35.05;12.50;;;7.90;99.90;;;;;;4890968;29;20111;-87
2023/04/21 06:32:42;;;;;;;26.67;11.90;;;8.00;99.90;;;;;;4891297;29;20455;-87
2023/04/21 06:35:08;;;;;;;36.28;13.85;;;8.00;99.90;;;;;;4888778;29;20052;-87
2023/04/21 06:37:34;;;;;;;38.03;12.43;;;8.00;99.90;;;;;;4888068;29;20443;-86
2023/04/21 06:39:59;;;;;;;35.05;14.05;;;8.10;99.90;;;;;;4892406;29;20079;-87
2023/04/21 06:42:25;;;;;;;29.02;11.43;;;8.10;99.90;;;;;;4885624;29;20032;-86
2023/04/21 06:44:51;;;;;;;32.15;12.68;;;8.10;99.90;;;;;;4889348;29;20506;-86
2023/04/21 06:47:16;;;;;;;21.73;8.68;;;8.20;99.90;;;;;;4890831;29;20039;-85
2023/04/21 06:49:42;;;;;;;40.42;13.38;;;8.20;99.90;;;;;;4890434;29;20534;-85
2023/04/21 06:52:07;;;;;;;25.95;12.00;;;8.20;99.90;;;;;;4902352;29;20036;-87
2023/04/21 06:54:33;;;;;;;34.63;11.07;;;8.30;99.90;;;;;;4886059;29;20401;-86
2023/04/21 06:56:59;;;;;;;33.15;11.93;;;8.30;99.90;;;;;;4881918;29;20032;-86
2023/04/21 06:59:25;;;;;;;23.88;9.82;;;8.30;99.90;;;;;;4881371;29;20032;-87
2023/04/21 07:01:51;;;;;;;31.02;10.02;;;8.40;99.90;;;;;;4881291;29;20471;-86
2023/04/21 07:04:20;;;;;;;31.00;12.05;;;8.40;99.90;;;;;;4881507;29;20460;-87
2023/04/21 07:06:47;;;;;;;30.20;11.85;;;8.40;99.90;;;;;;4884775;29;20028;-86
2023/04/21 07:09:13;;;;;;;35.20;11.18;;;8.40;99.90;;;;;;4887482;29;20032;-86
2023/04/21 07:11:39;;;;;;;20.80;8.27;;;8.40;99.90;;;;;;4901450;29;20416;-86
2023/04/21 07:14:05;;;;;;;25.70;11.15;;;8.50;99.90;;;;;;4882165;29;20047;-86
2023/04/21 07:16:31;;;;;;;39.40;11.60;;;8.50;99.90;;;;;;4900524;29;20043;-87
2023/04/21 07:18:57;;;;;;;35.70;10.57;;;8.50;99.90;;;;;;4901195;29;20495;-88
2023/04/21 07:21:23;;;;;;;28.25;10.30;;;8.50;99.90;;;;;;4882963;29;20024;-87
2023/04/21 07:23:49;;;;;;;34.38;11.18;;;8.60;99.90;;;;;;4900281;29;20028;-87
2023/04/21 07:26:16;;;;;;;35.00;10.50;;;8.60;99.90;;;;;;4880381;29;20056;-88
2023/04/21 07:28:42;;;;;;;26.33;10.10;;;8.60;99.90;;;;;;4881012;29;20055;-88
2023/04/21 07:31:08;;;;;;;29.40;11.30;;;8.60;99.90;;;;;;4880124;29;20052;-88
2023/04/21 07:33:33;;;;;;;31.98;11.27;;;8.60;99.90;;;;;;4881076;29;20037;-87
2023/04/21 07:36:01;;;;;;;30.23;9.48;;;8.70;99.90;;;;;;4881595;29;20035;-89
2023/04/21 07:38:26;;;;;;;34.50;11.38;;;8.70;99.90;;;;;;4881551;29;20031;-88
2023/04/21 07:40:52;;;;;;;25.48;10.95;;;8.70;99.90;;;;;;4880492;29;20032;-88
2023/04/21 07:43:18;;;;;;;33.95;12.45;;;8.70;99.90;;;;;;4880303;29;20530;-88
2023/04/21 07:45:44;;;;;;;38.88;11.57;;;8.80;99.90;;;;;;4880243;29;20033;-88
2023/04/21 07:48:10;;;;;;;32.85;10.38;;;8.80;99.90;;;;;;4880263;29;20020;-90
2023/04/21 07:50:36;;;;;;;26.52;10.55;;;8.80;99.90;;;;;;4876354;29;20024;-87
2023/04/21 07:53:01;;;;;;;28.25;11.38;;;8.90;99.90;;;;;;4876993;29;20041;-88
2023/04/21 07:55:28;;;;;;;27.75;12.63;;;8.90;99.90;;;;;;4897146;29;20092;-89
2023/04/21 07:57:54;;;;;;;19.45;9.52;;;8.90;99.90;;;;;;4897108;29;20081;-89
2023/04/21 08:00:20;;;;;;;38.35;11.32;;;9.00;99.90;;;;;;4880453;29;20085;-88
2023/04/21 08:02:45;;;;;;;19.80;8.98;;;9.10;99.90;;;;;;4880730;29;20032;-88
2023/04/21 08:05:11;;;;;;;28.38;10.10;;;9.10;99.90;;;;;;4881928;29;20498;-89
2023/04/21 08:07:38;;;;;;;26.20;10.57;;;9.20;99.90;;;;;;4881132;29;20048;-88
2023/04/21 08:10:05;;;;;;;34.83;10.93;;;9.20;99.90;;;;;;4899633;29;20020;-88
2023/04/21 08:12:30;;;;;;;25.45;10.18;;;9.20;99.90;;;;;;4899385;29;20107;-87
2023/04/21 08:14:56;;;;;;;31.08;10.18;;;9.20;99.90;;;;;;4902360;29;20071;-88
2023/04/21 08:17:21;;;;;;;33.78;11.73;;;9.20;99.90;;;;;;4891484;29;20451;-90
2023/04/21 08:19:47;;;;;;;33.35;10.38;;;9.20;99.90;;;;;;4903946;29;20059;-88
2023/04/21 08:22:13;;;;;;;27.55;10.15;;;9.10;99.90;;;;;;4886353;29;20029;-89
2023/04/21 08:24:38;;;;;;;25.77;8.68;;;9.10;99.90;;;;;;4884299;29;20483;-87
2023/04/21 08:27:04;;;;;;;30.98;9.88;;;9.10;99.90;;;;;;4882994;29;20041;-90
2023/04/21 08:29:30;;;;;;;26.88;8.30;;;9.10;99.90;;;;;;4884691;29;20072;-87
2023/04/21 08:31:55;;;;;;;30.17;10.60;;;9.10;99.90;;;;;;4887103;29;20057;-88
2023/04/21 08:34:21;;;;;;;32.38;10.73;;;9.10;99.90;;;;;;4884014;29;20047;-88
2023/04/21 08:36:47;;;;;;;28.50;10.18;;;9.10;99.90;;;;;;4891907;29;20037;-89
2023/04/21 08:39:15;;;;;;;31.80;11.25;;;9.10;99.90;;;;;;4885917;29;20056;-89
2023/04/21 08:41:41;;;;;;;27.13;10.60;;;9.00;99.90;;;;;;4885888;29;20063;-88
2023/04/21 08:44:10;;;;;;;30.23;10.88;;;9.00;99.90;;;;;;4886220;29;20120;-88
2023/04/21 08:46:36;;;;;;;29.08;11.05;;;9.00;99.90;;;;;;4885249;29;20072;-88
2023/04/21 08:49:02;;;;;;;33.40;10.55;;;9.00;99.90;;;;;;4885164;29;20095;-89
2023/04/21 08:51:29;;;;;;;36.80;10.63;;;9.00;99.90;;;;;;4884126;29;20162;-88
2023/04/21 08:53:55;;;;;;;32.90;10.80;;;9.00;99.90;;;;;;4885208;29;20084;-89
2023/04/21 08:56:24;;;;;;;30.50;10.57;;;9.00;99.90;;;;;;4884731;29;20025;-89
2023/04/21 08:58:50;;;;;;;41.83;12.10;;;8.90;99.90;;;;;;4884204;29;20044;-89
2023/04/21 09:01:16;;;;;;;38.08;11.40;;;9.00;99.90;;;;;;4882972;29;20394;-87
2023/04/21 09:03:41;;;;;;;34.58;10.93;;;9.00;99.90;;;;;;4884807;29;20052;-89
2023/04/21 09:06:08;;;;;;;33.47;10.32;;;9.00;99.90;;;;;;4906366;29;20058;-86
2023/04/21 09:08:37;;;;;;;34.35;10.27;;;9.00;99.90;;;;;;4886235;29;20031;-90
2023/04/21 09:11:03;;;;;;;29.42;11.95;;;9.00;99.90;;;;;;4883810;29;20115;-89
2023/04/21 09:13:34;;;;;;;41.28;12.93;;;9.00;99.90;;;;;;4883098;29;20297;-88
2023/04/21 09:16:02;;;;;;;33.63;12.02;;;9.00;99.90;;;;;;4884004;29;20491;-89
2023/04/21 09:18:35;;;;;;;32.00;12.77;;;9.00;99.90;;;;;;4883806;29;20032;-89
2023/04/21 09:21:10;;;;;;;28.85;11.85;;;9.00;99.90;;;;;;4883859;29;20037;-90
2023/04/21 09:23:47;;;;;;;37.13;13.18;;;9.00;99.90;;;;;;4885401;29;20075;-89
2023/04/21 09:26:14;;;;;;;37.15;13.65;;;9.00;99.90;;;;;;4885764;29;20029;-92
2023/04/21 09:28:48;;;;;;;42.40;14.48;;;9.00;99.90;;;;;;4884728;29;20497;-93
2023/04/21 09:31:25;;;;;;;43.55;16.83;;;9.00;99.90;;;;;;4882894;29;20039;-93
2023/04/21 09:33:57;;;;;;;71.65;19.23;;;9.00;99.90;;;;;;4886305;29;20056;-94
2023/04/21 09:36:28;;;;;;;40.53;16.58;;;9.00;99.90;;;;;;4887899;29;20029;-93
2023/04/21 09:38:56;;;;;;;36.05;15.60;;;9.00;99.90;;;;;;4886890;29;20100;-92
2023/04/21 09:41:21;;;;;;;51.38;18.50;;;9.00;99.90;;;;;;4884650;29;20041;-93
2023/04/21 09:43:47;;;;;;;45.72;17.13;;;9.10;99.90;;;;;;4882835;29;20439;-92
2023/04/21 09:46:16;;;;;;;47.47;18.33;;;9.10;99.90;;;;;;4882791;29;20024;-94
2023/04/21 09:48:43;;;;;;;44.45;18.85;;;9.00;99.90;;;;;;4882704;29;20036;-93
2023/04/21 09:51:12;;;;;;;48.25;19.13;;;9.00;99.90;;;;;;4883954;29;20036;-94
2023/04/21 09:53:39;;;;;;;52.85;18.83;;;9.00;99.90;;;;;;4883978;29;20093;-93
2023/04/21 09:56:10;;;;;;;53.67;21.92;;;9.00;99.90;;;;;;4889006;29;20064;-94
2023/04/21 09:58:45;;;;;;;45.83;22.35;;;9.00;99.90;;;;;;4886408;29;20032;-96
2023/04/21 10:01:12;;;;;;;42.70;20.25;;;9.00;99.90;;;;;;4884882;29;20060;-95
2023/04/21 10:03:42;;;;;;;50.00;22.95;;;9.00;99.90;;;;;;4884837;29;20036;-93
2023/04/21 10:06:07;;;;;;;43.17;22.77;;;9.00;99.90;;;;;;4884966;29;20174;-94
2023/04/21 10:08:35;;;;;;;47.08;21.88;;;9.00;99.90;;;;;;4884315;29;20079;-95
2023/04/21 10:11:02;;;;;;;50.05;24.08;;;9.00;99.90;;;;;;4884026;29;20094;-93
2023/04/21 10:13:29;;;;;;;51.80;23.13;;;9.00;99.90;;;;;;4871389;29;20044;-92
2023/04/21 10:16:08;;;;;;;51.72;24.90;;;9.00;99.90;;;;;;4864827;29;20032;-92
2023/04/21 10:18:41;;;;;;;50.30;26.83;;;9.00;99.90;;;;;;4855200;29;20108;-92
2023/04/21 10:21:09;;;;;;;54.05;27.23;;;8.90;99.90;;;;;;4862532;29;20498;-91
2023/04/21 10:23:48;;;;;;;57.25;28.85;;;9.00;99.90;;;;;;4864906;29;20037;-93
2023/04/21 10:26:21;;;;;;;53.30;28.63;;;9.00;99.90;;;;;;4864680;29;20037;-94
2023/04/21 10:28:56;;;;;;;51.42;28.55;;;9.00;99.90;;;;;;4865218;29;20096;-93
2023/04/21 10:31:35;;;;;;;51.17;28.42;;;9.00;99.90;;;;;;4864821;29;20039;-91
2023/04/21 10:34:07;;;;;;;44.55;25.73;;;9.00;99.90;;;;;;4864203;29;20060;-94
2023/04/21 10:36:46;;;;;;;48.85;24.73;;;9.00;99.90;;;;;;4864706;29;20156;-92
2023/04/21 10:39:35;;;;;;;50.17;24.77;;;9.00;99.90;;;;;;4864700;29;20037;-93
2023/04/21 10:42:19;;;;;;;50.05;25.13;;;9.00;99.90;;;;;;4874318;29;20116;-93
2023/04/21 10:44:56;;;;;;;48.80;24.33;;;9.00;99.90;;;;;;4903845;29;20047;-94
2023/04/21 10:47:36;;;;;;;35.72;19.73;;;9.00;99.90;;;;;;4888036;29;20060;-94
2023/04/21 10:50:27;;;;;;;36.63;18.17;;;9.00;99.90;;;;;;4886163;29;20043;-93
2023/04/21 10:52:53;;;;;;;44.15;17.90;;;9.10;99.90;;;;;;4888949;29;20024;-93
2023/04/21 10:55:20;;;;;;;36.72;17.90;;;9.00;99.90;;;;;;4894145;29;20035;-93
2023/04/21 10:57:47;;;;;;;35.47;16.30;;;9.10;99.90;;;;;;4893143;29;20024;-92
2023/04/21 11:00:18;;;;;;;29.35;14.93;;;9.10;99.90;;;;;;4906473;29;20179;-92
2023/04/21 11:02:52;;;;;;;30.42;14.93;;;9.10;99.90;;;;;;4888925;29;20056;-92
2023/04/21 11:05:19;;;;;;;36.80;17.02;;;9.10;99.90;;;;;;4888408;29;20040;-92
2023/04/21 11:07:45;;;;;;;36.72;17.48;;;9.10;99.90;;;;;;4903061;29;20112;-92
2023/04/21 11:10:11;;;;;;;35.78;16.08;;;9.10;99.90;;;;;;4884586;29;20071;-92
2023/04/21 11:12:39;;;;;;;35.92;15.73;;;9.10;99.90;;;;;;4883029;29;20032;-93
2023/04/21 11:15:07;;;;;;;29.08;17.20;;;9.10;99.90;;;;;;4882906;29;20135;-94
2023/04/21 11:17:34;;;;;;;30.92;16.58;;;9.10;99.90;;;;;;4882435;29;20031;-93
2023/04/21 11:20:01;;;;;;;27.25;13.80;;;9.10;99.90;;;;;;4882392;29;20037;-91
2023/04/21 11:22:27;;;;;;;29.23;15.32;;;9.20;99.90;;;;;;4882300;29;20395;-92
2023/04/21 11:24:54;;;;;;;29.58;14.57;;;9.30;99.90;;;;;;4884043;29;20037;-91
2023/04/21 11:27:21;;;;;;;29.95;16.80;;;9.30;99.90;;;;;;4882645;29;20028;-90
2023/04/21 11:29:48;;;;;;;31.23;17.08;;;9.40;99.90;;;;;;4882055;29;20044;-91
2023/04/21 11:32:16;;;;;;;40.35;20.25;;;9.30;99.90;;;;;;4899786;29;20056;-90
2023/04/21 11:34:42;;;;;;;45.10;21.05;;;9.30;99.90;;;;;;4881974;29;20079;-90
2023/04/21 11:37:12;;;;;;;43.53;23.77;;;9.30;99.90;;;;;;4882168;29;20139;-91
2023/04/21 11:39:40;;;;;;;47.00;24.13;;;9.40;99.90;;;;;;4882727;29;20032;-91
2023/04/21 11:42:06;;;;;;;45.28;21.80;;;9.40;99.90;;;;;;4882058;29;20033;-90
2023/04/21 11:44:40;;;;;;;49.85;22.77;;;9.40;99.90;;;;;;4883311;29;20068;-90
2023/04/21 11:47:21;;;;;;;50.08;20.55;;;9.40;99.90;;;;;;4881726;29;20052;-92
2023/04/21 11:49:53;;;;;;;45.70;20.88;;;9.40;99.90;;;;;;4881814;29;20028;-89
2023/04/21 11:52:24;;;;;;;48.90;20.75;;;9.40;99.90;;;;;;4881705;29;20068;-90
2023/04/21 11:54:57;;;;;;;;;;;9.50;99.90;;;;;;4882170;29;20127;-90
2023/04/21 11:57:24;;;;;;;47.53;20.55;;;9.50;99.90;;;;;;4881253;29;20517;-92
2023/04/21 11:59:50;;;;;;;52.85;21.00;;;9.50;99.90;;;;;;4882373;29;20039;-90
2023/04/21 12:02:27;;;;;;;45.67;21.00;;;9.50;99.90;;;;;;4882988;29;20036;-92
2023/04/21 12:05:09;;;;;;;47.65;21.23;;;9.50;99.90;;;;;;4884910;29;20495;-92
2023/04/21 12:07:37;;;;;;;44.45;19.77;;;9.50;99.90;;;;;;4886274;29;20557;-92
2023/04/21 12:10:14;;;;;;;48.50;20.77;;;9.50;99.90;;;;;;4885293;29;20147;-91
2023/04/21 12:12:41;;;;;;;47.83;22.02;;;9.50;99.90;;;;;;4886321;29;20036;-93
2023/04/21 12:15:08;;;;;;;47.20;22.13;;;9.40;99.90;;;;;;4886839;29;20040;-92
2023/04/21 12:17:38;;;;;;;42.28;20.33;;;9.40;99.90;;;;;;4885236;29;20028;-91
2023/04/21 12:20:05;;;;;;;39.75;20.63;;;9.40;99.90;;;;;;4884877;29;20040;-91
2023/04/21 12:22:31;;;;;;;46.08;22.33;;;9.40;99.90;;;;;;4885879;29;20032;-91
2023/04/21 12:24:57;;;;;;;44.80;21.25;;;9.40;99.90;;;;;;4885344;29;20028;-90
2023/04/21 12:27:22;;;;;;;44.20;20.52;;;9.40;99.90;;;;;;4890192;29;20037;-90
2023/04/21 12:29:48;;;;;;;48.05;20.50;;;9.50;99.90;;;;;;4885934;29;20021;-91
2023/04/21 12:32:14;;;;;;;50.30;20.65;;;9.50;99.90;;;;;;4902174;29;20115;-92
2023/04/21 12:34:39;;;;;;;33.60;14.52;;;9.50;99.90;;;;;;4885326;29;20052;-94
2023/04/21 12:37:06;;;;;;;31.42;18.40;;;9.50;99.90;;;;;;4885283;29;20092;-91